Portada
METAR-TAF:

METAR-TAF

Aeroports :

Boscombe Down, Anglaterra

latitud: 51-10N, longitud: 001-45W, altitud: 124 m

Observació

L'informe es va fer fa 1 hora i 13 minuts, a les 23:50 UTC
Vent 9 kt del Oest
Temperatura 7°C
Humitat 87%
Pressió 1000 hPa

METAR: EGDM 052350Z AUTO 28009KT //// NCD 07/05 Q1000

Hora: 02:03 (01:03 UTC)

Pronòstic

L'informe es va fer fa 14 hores i 45 minuts, a les 10:18 UTC
Pronòstic vàlid del 05 a les 12 UTC al 05 a les 16 UTC
Vent 18 kt del Oest/Nord-Oest amb ràfegues de 28 kt
Visibilitat 10 km o més
Núvols disperses a una alçada de 4500 ft
Probabilitat 30% :
Temporalment
l' 05 a les 12 UTC al 05 a les 14 UTC
Visibilitat: 7000 m
xàfecs de pluja
Temporalment
l' 05 a les 14 UTC al 05 a les 16 UTC
Visibilitat: 5000 m
xàfecs de pluja

TAF: EGDM 051018Z 0512/0516 29018G28KT 9999 SCT045 PROB30 TEMPO 0512/0514 7000 SHRA TEMPO 0514/0516 5000 SHRA

Observacions i pronòstics meteorològics de més de 4000 aeroports (METAR i TAF).

Les estacions disponibles són els punts grocs i vermells al mapa.

Posi el ratolí al punt desitjat per veure el nom de l'estació.

Feu clic per veure les observacions i els pronòstics meteorològics.

Per canviar el mapa: feu clic els botons verds amb una creu de color negre per apropar; al botó verd amb un guió per allunyar la imatge; o en les fletxes verdes per a mapes adjacents.


METAR-TAF: